Cleveland, South Carolina
Current Conditions -  °F | °C
As of 8:53 AM on Tuesday 21 Oct 2014 (Local Time) from KGMU Reporting Station
Clear Clear  
Wind Chill: 53°   Ceiling: Unl
Heat Index: 53°   Visibility: 10mi
Dew Point: 48°   Wind: 3mph
Humidity: 83%   Direction: 280°W
Pressure: 29.99"   Gusts: NA
Location:  35.07°N, 82.53°W
Report Text: KGMU 211253Z 28003KT 10SM CLR 12/09 A2999 RMK AO2 SLP151 T01170089
Loading
Personal Weather Stations






























Interactive Weather Map
Tropical Storm Tracking
New forecast layout! Learn more

10-Day Weather Forecast

Advertisements
Track Severe Weather on mobile